createdAt,value
2023-01-23T00:02:06.232Z,68.75
2023-01-23T00:04:32.847Z,68.47
2023-01-23T00:06:59.276Z,68.69
2023-01-23T00:09:25.770Z,68.41
2023-01-23T00:11:52.239Z,69.34
2023-01-23T00:14:18.642Z,68.24
2023-01-23T00:16:45.155Z,68.72
2023-01-23T00:19:11.631Z,68.18
2023-01-23T00:21:38.049Z,68.35
2023-01-23T00:24:05.229Z,68.31
2023-01-23T00:26:35.428Z,68.36
2023-01-23T00:29:02.365Z,68.73
2023-01-23T00:31:35.411Z,68.08
2023-01-23T00:34:05.496Z,68.25
2023-01-23T00:36:37.496Z,68.15
2023-01-23T00:39:14.391Z,68.37
2023-01-23T00:41:41.061Z,68.95
2023-01-23T00:44:07.755Z,68.03
2023-01-23T00:46:35.035Z,68.10
2023-01-23T00:49:01.561Z,68.17
2023-01-23T00:51:28.107Z,67.92
2023-01-23T00:53:55.291Z,67.65
2023-01-23T00:56:21.736Z,67.55
2023-01-23T00:58:48.322Z,67.05
2023-01-23T01:01:16.272Z,67.13
2023-01-23T01:03:43.700Z,67.37
2023-01-23T01:06:11.657Z,67.61
2023-01-23T01:08:38.159Z,67.61
2023-01-23T01:11:05.305Z,67.54
2023-01-23T01:13:32.112Z,67.33
2023-01-23T01:16:01.840Z,68.01
2023-01-23T01:18:29.769Z,67.87
2023-01-23T01:20:56.727Z,67.74
2023-01-23T01:23:23.295Z,67.40
2023-01-23T01:25:49.770Z,67.68
2023-01-23T01:28:16.204Z,67.24
2023-01-23T01:30:42.709Z,67.46
2023-01-23T01:33:09.164Z,68.17
2023-01-23T01:35:35.660Z,68.25
2023-01-23T01:38:02.037Z,68.19
2023-01-23T01:40:33.081Z,69.12
2023-01-23T01:43:08.451Z,68.77
2023-01-23T01:46:02.735Z,68.59
2023-01-23T01:48:40.460Z,68.09
2023-01-23T01:51:14.486Z,68.93
2023-01-23T01:53:41.641Z,68.38
2023-01-23T01:56:12.346Z,68.95
2023-01-23T01:58:41.150Z,68.95
2023-01-23T02:01:07.860Z,69.02
2023-01-23T02:03:35.076Z,68.35
2023-01-23T02:06:01.759Z,68.62
2023-01-23T02:08:39.595Z,68.44
2023-01-23T02:11:07.035Z,68.44
2023-01-23T02:13:39.724Z,68.01
2023-01-23T02:16:12.778Z,68.56
2023-01-23T02:18:44.690Z,68.50
2023-01-23T02:21:13.186Z,68.75
2023-01-23T02:23:39.511Z,68.79
2023-01-23T02:26:22.277Z,68.97
2023-01-23T02:28:55.922Z,69.72
2023-01-23T02:31:23.219Z,68.93
2023-01-23T02:33:54.539Z,68.50
2023-01-23T02:36:24.162Z,69.15
2023-01-23T02:39:05.627Z,68.78
2023-01-23T02:41:41.244Z,69.22
2023-01-23T02:44:16.694Z,68.61
2023-01-23T02:46:43.343Z,68.72
2023-01-23T02:49:10.025Z,69.14
2023-01-23T02:51:36.811Z,69.30
2023-01-23T02:54:04.002Z,69.16
2023-01-23T02:56:30.426Z,68.63
2023-01-23T02:59:15.514Z,68.27
2023-01-23T03:01:42.162Z,68.41
2023-01-23T03:04:08.586Z,68.46
2023-01-23T03:06:37.592Z,68.79
2023-01-23T03:09:15.919Z,68.63
2023-01-23T03:11:44.223Z,68.84
2023-01-23T03:14:14.105Z,67.40
2023-01-23T03:16:42.809Z,67.01
2023-01-23T03:19:10.336Z,67.92
2023-01-23T03:21:40.496Z,68.29
2023-01-23T03:24:09.609Z,68.42
2023-01-23T03:26:39.803Z,68.48
2023-01-23T03:29:25.057Z,68.67
2023-01-23T03:31:52.146Z,68.66
2023-01-23T03:34:19.112Z,67.83
2023-01-23T03:36:45.585Z,67.78
2023-01-23T03:39:30.766Z,67.92
2023-01-23T03:41:57.261Z,68.60
2023-01-23T03:44:24.091Z,68.70
2023-01-23T03:46:52.002Z,68.45
2023-01-23T03:49:19.483Z,68.39
2023-01-23T03:51:46.047Z,67.54
2023-01-23T03:54:14.571Z,68.49
2023-01-23T03:56:42.199Z,67.82
2023-01-23T03:59:09.513Z,68.22
2023-01-23T04:01:36.807Z,68.29
2023-01-23T04:04:03.904Z,68.21
2023-01-23T04:06:30.500Z,68.62
2023-01-23T04:08:58.254Z,68.53
2023-01-23T04:11:26.508Z,68.71
2023-01-23T04:13:54.187Z,68.62
2023-01-23T04:16:22.814Z,68.73
2023-01-23T04:18:50.963Z,68.09
2023-01-23T04:21:17.559Z,68.04
2023-01-23T04:23:44.010Z,68.62
2023-01-23T04:26:10.474Z,68.97
2023-01-23T04:28:36.986Z,67.76
2023-01-23T04:31:03.624Z,68.23
2023-01-23T04:33:30.212Z,67.65
2023-01-23T04:35:59.233Z,67.70
2023-01-23T04:38:27.523Z,67.66
2023-01-23T04:40:54.504Z,67.98
2023-01-23T04:43:20.938Z,68.84
2023-01-23T04:45:50.755Z,68.81
2023-01-23T04:48:17.420Z,68.49
2023-01-23T04:50:43.823Z,68.81
2023-01-23T04:53:10.542Z,68.32
2023-01-23T04:55:37.113Z,68.37
2023-01-23T04:58:03.746Z,68.60
2023-01-23T05:00:30.382Z,68.45
2023-01-23T05:02:57.467Z,68.46
2023-01-23T05:05:24.888Z,68.45
2023-01-23T05:07:51.671Z,68.46
2023-01-23T05:10:19.102Z,69.31
2023-01-23T05:12:45.888Z,68.74
2023-01-23T05:15:12.366Z,68.70
2023-01-23T05:17:39.057Z,68.23
2023-01-23T05:20:06.488Z,68.05
2023-01-23T05:22:33.618Z,68.26
2023-01-23T05:25:00.480Z,68.51
2023-01-23T05:27:26.922Z,68.11
2023-01-23T05:29:53.404Z,69.14
2023-01-23T05:32:19.816Z,69.31
2023-01-23T05:34:46.279Z,68.80
2023-01-23T05:37:12.729Z,68.96
2023-01-23T05:39:39.139Z,69.12
2023-01-23T05:42:05.750Z,68.56
2023-01-23T05:44:32.197Z,68.67
2023-01-23T05:46:58.631Z,67.80
2023-01-23T05:49:25.238Z,68.46
2023-01-23T05:51:51.644Z,68.45
2023-01-23T05:54:18.036Z,68.31
2023-01-23T05:56:44.436Z,68.96
2023-01-23T05:59:11.086Z,68.08
2023-01-23T06:01:37.635Z,68.10
2023-01-23T06:04:04.104Z,68.29
2023-01-23T06:06:30.534Z,67.67
2023-01-23T06:08:59.481Z,67.88
2023-01-23T06:11:25.876Z,67.77
2023-01-23T06:13:52.296Z,67.84
2023-01-23T06:16:18.849Z,68.24
2023-01-23T06:18:45.227Z,67.88
2023-01-23T06:21:11.683Z,67.97
2023-01-23T06:23:38.043Z,67.90
2023-01-23T06:26:05.524Z,67.71
2023-01-23T06:28:31.944Z,68.29
2023-01-23T06:31:03.917Z,68.48
2023-01-23T06:33:31.098Z,67.86
2023-01-23T06:36:02.554Z,67.81
2023-01-23T06:38:29.304Z,67.81
2023-01-23T06:40:56.366Z,68.00
2023-01-23T06:43:23.990Z,67.36
2023-01-23T06:45:50.976Z,67.93
2023-01-23T06:48:17.608Z,67.94
2023-01-23T06:50:44.951Z,67.80
2023-01-23T06:53:15.075Z,67.98
2023-01-23T06:55:41.496Z,67.98
2023-01-23T06:58:07.940Z,68.72
2023-01-23T07:00:34.438Z,68.01
2023-01-23T07:03:03.692Z,68.27
2023-01-23T07:05:31.597Z,69.43
2023-01-23T07:07:58.416Z,69.55
2023-01-23T07:10:26.271Z,70.28
2023-01-23T07:12:52.692Z,70.00
2023-01-23T07:15:19.277Z,68.78
2023-01-23T07:17:45.663Z,69.11
2023-01-23T07:20:12.471Z,68.78
2023-01-23T07:22:38.903Z,69.13
2023-01-23T07:25:05.991Z,68.38
2023-01-23T07:27:33.251Z,69.00
2023-01-23T07:29:59.702Z,69.46
2023-01-23T07:32:26.159Z,69.47
2023-01-23T07:34:53.185Z,70.85
2023-01-23T07:37:21.112Z,69.64
2023-01-23T07:39:47.539Z,70.02
2023-01-23T07:42:14.141Z,69.81
2023-01-23T07:44:40.533Z,69.39
2023-01-23T07:47:06.951Z,68.77
2023-01-23T07:49:33.506Z,68.67
2023-01-23T07:51:59.909Z,68.18
2023-01-23T07:54:26.330Z,68.30
2023-01-23T07:56:53.344Z,68.08
2023-01-23T07:59:19.884Z,67.67
2023-01-23T08:01:46.366Z,67.50
2023-01-23T08:04:12.978Z,67.24
2023-01-23T08:06:39.514Z,67.16
2023-01-23T08:09:06.179Z,66.91
2023-01-23T08:11:34.378Z,67.38
2023-01-23T08:14:00.990Z,66.88
2023-01-23T08:16:28.059Z,66.51
2023-01-23T08:18:54.577Z,65.25
2023-01-23T08:21:21.002Z,65.48
2023-01-23T08:23:48.133Z,65.71
2023-01-23T08:26:16.993Z,65.51
2023-01-23T08:28:45.213Z,64.88
2023-01-23T08:31:12.933Z,63.93
2023-01-23T08:33:39.949Z,63.89
2023-01-23T08:36:10.928Z,63.47
2023-01-23T08:38:37.641Z,63.80
2023-01-23T08:41:04.355Z,63.36
2023-01-23T08:43:31.251Z,63.30
2023-01-23T08:45:59.118Z,62.41
2023-01-23T08:48:27.124Z,62.33
2023-01-23T08:51:02.242Z,61.85
2023-01-23T08:53:28.990Z,61.44
2023-01-23T08:56:00.074Z,61.43
2023-01-23T08:58:26.853Z,62.25
2023-01-23T09:00:53.573Z,61.62
2023-01-23T09:03:20.094Z,62.22
2023-01-23T09:05:46.498Z,61.80
2023-01-23T09:08:12.999Z,61.33
2023-01-23T09:10:39.565Z,61.79
2023-01-23T09:13:06.165Z,61.92
2023-01-23T09:15:32.585Z,62.02
2023-01-23T09:17:59.602Z,62.06
2023-01-23T09:20:26.689Z,61.30
2023-01-23T09:22:53.183Z,61.56
2023-01-23T09:25:19.739Z,62.32
2023-01-23T09:27:46.152Z,62.19
2023-01-23T09:30:13.938Z,61.56
2023-01-23T09:32:40.350Z,62.54
2023-01-23T09:35:07.233Z,62.51
2023-01-23T09:37:58.437Z,62.40
2023-01-23T09:40:30.586Z,62.66
2023-01-23T09:43:08.439Z,62.88
2023-01-23T09:45:34.981Z,63.63
2023-01-23T09:48:19.507Z,63.71
2023-01-23T09:51:05.330Z,63.50
2023-01-23T09:53:37.247Z,62.68
2023-01-23T09:56:12.210Z,62.84
2023-01-23T09:58:55.028Z,62.32
2023-01-23T10:01:21.810Z,63.13
2023-01-23T10:03:48.232Z,65.24
2023-01-23T10:06:25.026Z,64.12
2023-01-23T10:09:23.692Z,63.50
2023-01-23T10:12:06.612Z,62.34
2023-01-23T10:14:59.362Z,61.10
2023-01-23T10:17:29.867Z,59.26
2023-01-23T10:20:30.436Z,59.27
2023-01-23T10:23:13.888Z,59.78
2023-01-23T10:25:41.221Z,58.38
2023-01-23T10:28:35.093Z,60.15
2023-01-23T10:31:07.773Z,59.42
2023-01-23T10:33:49.488Z,59.77
2023-01-23T10:36:41.921Z,59.73
2023-01-23T10:39:20.134Z,58.78
2023-01-23T10:41:51.173Z,58.53
2023-01-23T10:44:19.730Z,58.82
2023-01-23T10:46:54.026Z,59.63
2023-01-23T10:49:46.319Z,59.04
2023-01-23T10:52:33.263Z,60.05
2023-01-23T10:55:00.762Z,58.88
2023-01-23T10:57:29.937Z,58.74
2023-01-23T11:00:04.259Z,59.43
2023-01-23T11:02:33.194Z,58.49
2023-01-23T11:05:00.314Z,57.59
2023-01-23T11:07:37.209Z,59.39
2023-01-23T11:10:09.640Z,58.36
2023-01-23T11:12:48.410Z,58.03
2023-01-23T11:15:21.473Z,58.42
2023-01-23T11:17:50.133Z,57.80
2023-01-23T11:20:42.766Z,58.19
2023-01-23T11:23:10.799Z,58.21
2023-01-23T11:25:44.797Z,59.65
2023-01-23T11:28:34.912Z,59.86
2023-01-23T11:31:15.048Z,59.98
2023-01-23T11:33:57.207Z,60.45
2023-01-23T11:36:30.417Z,59.65
2023-01-23T11:39:04.939Z,59.23
2023-01-23T11:41:34.778Z,59.57
2023-01-23T11:44:12.841Z,59.97
2023-01-23T11:47:15.283Z,61.57
2023-01-23T11:49:54.141Z,60.71
2023-01-23T11:52:32.592Z,60.30
2023-01-23T11:55:14.877Z,59.91
2023-01-23T11:57:59.637Z,60.66
2023-01-23T12:00:39.683Z,61.66
2023-01-23T12:03:30.968Z,61.93
2023-01-23T12:06:19.616Z,61.28
2023-01-23T12:09:01.983Z,60.44
2023-01-23T12:11:41.132Z,58.91
2023-01-23T12:14:17.327Z,58.43
2023-01-23T12:16:49.705Z,56.46
2023-01-23T12:19:29.661Z,56.79
2023-01-23T12:21:59.429Z,56.01
2023-01-23T12:24:25.809Z,55.86
2023-01-23T12:27:34.260Z,54.88
2023-01-23T12:30:12.846Z,54.72
2023-01-23T12:33:09.196Z,55.42
2023-01-23T12:36:11.133Z,55.81
2023-01-23T12:39:13.801Z,55.25
2023-01-23T12:41:46.242Z,54.52
2023-01-23T12:44:18.224Z,54.24
2023-01-23T12:46:56.966Z,54.20
2023-01-23T12:49:33.640Z,54.96
2023-01-23T12:52:05.643Z,55.24
2023-01-23T12:54:42.822Z,56.39
2023-01-23T12:57:12.501Z,56.32
2023-01-23T12:59:54.390Z,57.43
2023-01-23T13:02:40.424Z,57.94
2023-01-23T13:05:19.869Z,58.77
2023-01-23T13:08:19.080Z,58.97
2023-01-23T13:11:15.300Z,59.12
2023-01-23T13:13:43.158Z,58.32
2023-01-23T13:16:14.928Z,58.06
2023-01-23T13:19:11.580Z,58.43
2023-01-23T13:21:57.030Z,58.28
2023-01-23T13:24:49.202Z,58.81
2023-01-23T13:27:34.294Z,58.84
2023-01-23T13:30:02.278Z,58.74
2023-01-23T13:32:29.618Z,59.33
2023-01-23T13:34:56.330Z,57.87
2023-01-23T13:37:28.675Z,58.46
2023-01-23T13:40:13.758Z,57.49
2023-01-23T13:42:40.325Z,56.71
2023-01-23T13:45:27.527Z,56.24
2023-01-23T14:20:39.779Z,57.89
2023-01-23T14:23:18.183Z,57.79
2023-01-23T14:25:44.928Z,57.22
2023-01-23T14:28:16.840Z,57.73
2023-01-23T14:30:53.458Z,57.73
2023-01-23T14:33:19.958Z,58.36
2023-01-23T14:35:47.015Z,58.08
2023-01-23T14:38:22.730Z,58.20
2023-01-23T14:40:51.280Z,58.83
2023-01-23T14:43:21.882Z,59.33
2023-01-23T14:45:56.601Z,59.75
2023-01-23T14:48:23.101Z,61.14
2023-01-23T14:50:49.575Z,60.56
2023-01-23T14:53:16.967Z,60.89
2023-01-23T14:55:48.379Z,61.25
2023-01-23T14:58:22.947Z,63.07
2023-01-23T15:00:50.486Z,63.45
2023-01-23T15:03:40.292Z,64.32
2023-01-23T15:06:18.814Z,64.77
2023-01-23T15:08:45.609Z,64.47
2023-01-23T15:11:13.440Z,64.43
2023-01-23T15:13:43.761Z,64.43
2023-01-23T15:16:18.760Z,64.65
2023-01-23T15:18:53.568Z,64.89
2023-01-23T15:21:27.318Z,65.34
2023-01-23T15:24:06.044Z,64.41
2023-01-23T15:26:35.529Z,64.80
2023-01-23T15:29:09.354Z,66.62
2023-01-23T15:31:41.653Z,66.23
2023-01-23T15:34:20.074Z,65.66
2023-01-23T15:37:20.381Z,64.82
2023-01-23T15:39:46.780Z,65.55
2023-01-23T15:42:13.120Z,64.96
2023-01-23T15:44:41.090Z,64.76
2023-01-23T15:47:07.694Z,65.39
2023-01-23T15:49:36.618Z,65.32
2023-01-23T15:52:18.464Z,65.63
2023-01-23T15:54:45.402Z,65.58
2023-01-23T15:57:15.194Z,67.06
2023-01-23T15:59:41.989Z,66.07
2023-01-23T16:02:29.700Z,65.88
2023-01-23T16:04:56.997Z,66.04
2023-01-23T16:07:32.325Z,64.47
2023-01-23T16:09:58.763Z,64.60
2023-01-23T16:12:28.772Z,65.22
2023-01-23T16:14:56.032Z,65.90
2023-01-23T16:17:23.275Z,64.92
2023-01-23T16:19:50.688Z,65.49
2023-01-23T16:22:25.172Z,65.83
2023-01-23T16:24:52.032Z,66.62
2023-01-23T16:27:20.456Z,67.15
2023-01-23T16:29:49.317Z,66.05
2023-01-23T16:32:16.232Z,66.33
2023-01-23T16:34:42.735Z,65.58
2023-01-23T16:37:15.282Z,65.79
2023-01-23T16:39:43.099Z,65.77
2023-01-23T16:42:22.369Z,65.35
2023-01-23T16:44:49.343Z,66.06
2023-01-23T16:47:15.849Z,66.96
2023-01-23T16:49:51.923Z,66.84
2023-01-23T16:52:23.832Z,66.88
2023-01-23T16:54:52.511Z,67.56
2023-01-23T16:57:20.374Z,66.95
2023-01-23T16:59:49.885Z,66.68
2023-01-23T17:02:28.799Z,66.79
2023-01-23T17:04:55.237Z,65.45
2023-01-23T17:07:21.763Z,65.89
2023-01-23T17:09:49.405Z,65.89
2023-01-23T17:12:21.023Z,65.87
2023-01-23T17:14:49.507Z,65.22
2023-01-23T17:17:23.258Z,65.53
2023-01-23T17:19:49.681Z,65.01
2023-01-23T17:22:23.206Z,65.00
2023-01-23T17:24:49.709Z,65.11
2023-01-23T17:27:16.268Z,65.64
2023-01-23T17:29:42.693Z,66.06
2023-01-23T17:32:26.860Z,66.46
2023-01-23T17:34:54.013Z,66.06
2023-01-23T17:37:22.751Z,65.66
2023-01-23T17:39:49.323Z,65.98
2023-01-23T17:42:16.066Z,64.92
2023-01-23T17:44:42.495Z,64.89
2023-01-23T17:47:12.897Z,64.60
2023-01-23T17:49:40.338Z,64.95
2023-01-23T17:52:11.181Z,64.80
2023-01-23T17:54:37.570Z,65.05
2023-01-23T17:57:04.831Z,64.31
2023-01-23T17:59:32.247Z,65.09
2023-01-23T18:01:58.812Z,65.75
2023-01-23T18:04:25.586Z,66.75
2023-01-23T18:06:52.461Z,65.79
2023-01-23T18:09:19.285Z,65.43
2023-01-23T18:11:52.012Z,65.85
2023-01-23T18:14:37.727Z,65.89
2023-01-23T18:17:20.949Z,65.47
2023-01-23T18:19:47.826Z,65.31
2023-01-23T18:22:14.497Z,65.67
2023-01-23T18:24:41.097Z,66.29
2023-01-23T18:27:20.482Z,65.96
2023-01-23T18:30:09.855Z,66.05
2023-01-23T18:32:57.138Z,65.70
2023-01-23T18:35:32.112Z,65.37
2023-01-23T18:38:32.461Z,65.46
2023-01-23T18:41:04.803Z,66.17
2023-01-23T18:43:38.572Z,66.13
2023-01-23T18:46:20.393Z,66.14
2023-01-23T18:48:49.281Z,66.10
2023-01-23T18:51:49.714Z,66.13
2023-01-23T18:54:24.764Z,65.55
2023-01-23T18:57:07.450Z,65.94
2023-01-23T18:59:54.115Z,66.00
2023-01-23T19:02:45.080Z,66.42
2023-01-23T19:05:11.406Z,67.24
2023-01-23T19:07:38.251Z,66.60
2023-01-23T19:10:24.731Z,66.57
2023-01-23T19:13:09.336Z,66.52
2023-01-23T19:15:59.641Z,66.35
2023-01-23T19:18:47.281Z,66.72
2023-01-23T19:21:16.891Z,66.17
2023-01-23T19:24:00.853Z,66.42
2023-01-23T19:26:33.127Z,65.61
2023-01-23T19:29:11.667Z,65.56
2023-01-23T19:32:03.104Z,66.22
2023-01-23T19:34:31.059Z,66.93
2023-01-23T19:36:57.549Z,67.04
2023-01-23T19:39:23.980Z,66.43
2023-01-23T19:41:50.653Z,66.26
2023-01-23T19:44:19.281Z,66.03
2023-01-23T19:46:46.147Z,65.89
2023-01-23T19:49:13.799Z,66.27
2023-01-23T19:51:40.926Z,65.71
2023-01-23T19:54:12.535Z,67.21
2023-01-23T19:56:39.474Z,66.49
2023-01-23T19:59:06.797Z,67.30
2023-01-23T20:01:46.694Z,67.09
2023-01-23T20:04:16.083Z,66.51
2023-01-23T20:06:45.449Z,66.61
2023-01-23T20:09:14.524Z,66.39
2023-01-23T20:11:41.877Z,67.09
2023-01-23T20:14:08.343Z,66.31
2023-01-23T20:16:34.815Z,66.78
2023-01-23T20:19:01.503Z,66.15
2023-01-23T20:21:27.911Z,66.27
2023-01-23T20:23:54.346Z,66.90
2023-01-23T20:26:21.604Z,66.29
2023-01-23T20:28:49.674Z,66.41
2023-01-23T20:31:16.362Z,66.65
2023-01-23T20:33:43.042Z,66.16
2023-01-23T20:36:13.314Z,66.62
2023-01-23T20:38:40.518Z,65.83
2023-01-23T20:41:18.896Z,66.19
2023-01-23T20:43:46.045Z,66.37
2023-01-23T20:46:14.387Z,67.27
2023-01-23T20:48:44.248Z,66.83
2023-01-23T20:51:11.337Z,67.06
2023-01-23T20:53:39.789Z,67.45
2023-01-23T20:56:20.552Z,67.99
2023-01-23T20:59:08.091Z,67.78
2023-01-23T21:01:55.990Z,67.35
2023-01-23T21:04:24.182Z,67.01
2023-01-23T21:06:50.772Z,66.65
2023-01-23T21:09:17.497Z,66.28
2023-01-23T21:11:44.066Z,66.52
2023-01-23T21:14:10.435Z,66.34
2023-01-23T21:16:36.953Z,68.36
2023-01-23T21:19:03.628Z,67.80
2023-01-23T21:21:30.315Z,67.75
2023-01-23T21:23:56.880Z,67.36
2023-01-23T21:26:25.865Z,67.37
2023-01-23T21:28:54.280Z,68.70
2023-01-23T21:31:22.950Z,67.44
2023-01-23T21:33:49.531Z,67.49
2023-01-23T21:36:19.025Z,67.23
2023-01-23T21:38:45.602Z,67.37
2023-01-23T21:41:12.185Z,68.60
2023-01-23T21:43:38.605Z,68.32
2023-01-23T21:46:05.476Z,68.40
2023-01-23T21:48:33.019Z,68.41
2023-01-23T21:51:12.217Z,69.03
2023-01-23T21:53:40.481Z,68.69
2023-01-23T21:56:08.781Z,69.05
2023-01-23T21:58:35.348Z,68.50
2023-01-23T22:01:25.969Z,68.18
2023-01-23T22:03:53.238Z,67.53
2023-01-23T22:06:19.704Z,67.66
2023-01-23T22:08:46.204Z,67.45
2023-01-23T22:11:13.124Z,66.44
2023-01-23T22:13:39.754Z,68.13
2023-01-23T22:16:06.618Z,67.68
2023-01-23T22:18:34.227Z,67.31
2023-01-23T22:21:03.339Z,67.67
2023-01-23T22:23:30.693Z,67.78
2023-01-23T22:25:59.578Z,68.34
2023-01-23T22:28:26.276Z,68.22
2023-01-23T22:30:52.757Z,68.88
2023-01-23T22:33:19.384Z,69.29
2023-01-23T22:35:46.119Z,69.17
2023-01-23T22:38:14.209Z,68.30
2023-01-23T22:40:41.171Z,68.52
2023-01-23T22:43:08.913Z,67.90
2023-01-23T22:45:35.468Z,68.36
2023-01-23T22:48:02.035Z,68.82
2023-01-23T22:50:29.571Z,68.36
2023-01-23T22:52:56.168Z,68.04
2023-01-23T22:55:22.856Z,69.44
2023-01-23T22:57:52.837Z,69.77
2023-01-23T23:00:19.560Z,69.08
2023-01-23T23:02:46.101Z,70.58
2023-01-23T23:05:12.613Z,70.59
2023-01-23T23:07:39.057Z,69.76
2023-01-23T23:10:07.704Z,69.40
2023-01-23T23:12:34.488Z,69.10
2023-01-23T23:15:00.975Z,70.13
2023-01-23T23:17:29.002Z,69.07
2023-01-23T23:19:55.500Z,69.34
2023-01-23T23:22:21.982Z,69.13
2023-01-23T23:24:48.379Z,70.09
2023-01-23T23:27:14.920Z,69.03
2023-01-23T23:29:41.328Z,70.23
2023-01-23T23:32:07.874Z,70.05
2023-01-23T23:34:36.224Z,70.44
2023-01-23T23:37:03.616Z,70.27
2023-01-23T23:39:30.082Z,70.73
2023-01-23T23:41:56.643Z,70.64
2023-01-23T23:44:23.060Z,69.39
2023-01-23T23:46:49.592Z,70.31
2023-01-23T23:49:16.080Z,69.06
2023-01-23T23:51:42.498Z,68.66
2023-01-23T23:54:09.051Z,68.74
2023-01-23T23:56:35.421Z,68.82
2023-01-23T23:59:02.435Z,67.91
